sensor_id;sensor_type;location;lat;lon;timestamp;pressure;altitude;pressure_sealevel;temperature;humidity
12969;BME280;6549;53.128;8.182;2022-09-03T00:01:41;101324.38;;;16.67;55.86
12969;BME280;6549;53.128;8.182;2022-09-03T00:05:11;101322.03;;;16.61;56.06
12969;BME280;6549;53.128;8.182;2022-09-03T00:08:19;101317.47;;;16.41;57.19
12969;BME280;6549;53.128;8.182;2022-09-03T00:11:28;101320.78;;;16.25;57.91
12969;BME280;6549;53.128;8.182;2022-09-03T00:14:39;101319.72;;;16.12;58.77
12969;BME280;6549;53.128;8.182;2022-09-03T00:17:46;101328.94;;;16.02;59.50
12969;BME280;6549;53.128;8.182;2022-09-03T00:20:53;101321.47;;;15.92;60.32
12969;BME280;6549;53.128;8.182;2022-09-03T00:23:59;101314.44;;;15.84;60.83
12969;BME280;6549;53.128;8.182;2022-09-03T00:27:02;101316.81;;;15.82;61.30
12969;BME280;6549;53.128;8.182;2022-09-03T00:30:10;101323.16;;;15.79;61.61
12969;BME280;6549;53.128;8.182;2022-09-03T00:33:23;101325.94;;;15.79;61.73
12969;BME280;6549;53.128;8.182;2022-09-03T00:36:34;101320.13;;;15.59;62.98
12969;BME280;6549;53.128;8.182;2022-09-03T00:39:41;101323.75;;;15.52;63.34
12969;BME280;6549;53.128;8.182;2022-09-03T00:42:51;101317.75;;;15.61;63.23
12969;BME280;6549;53.128;8.182;2022-09-03T00:46:20;101314.97;;;15.61;62.83
12969;BME280;6549;53.128;8.182;2022-09-03T00:49:59;101316.97;;;15.50;63.54
12969;BME280;6549;53.128;8.182;2022-09-03T01:06:18;101311.28;;;15.05;67.81
12969;BME280;6549;53.128;8.182;2022-09-03T01:09:47;101305.31;;;15.17;67.96
12969;BME280;6549;53.128;8.182;2022-09-03T01:13:04;101307.34;;;15.06;68.67
12969;BME280;6549;53.128;8.182;2022-09-03T01:17:45;101308.63;;;14.80;70.44
12969;BME280;6549;53.128;8.182;2022-09-03T01:30:22;101306.78;;;14.42;74.37
12969;BME280;6549;53.128;8.182;2022-09-03T01:33:46;101308.34;;;14.29;75.76
12969;BME280;6549;53.128;8.182;2022-09-03T01:43:38;101306.38;;;14.36;76.05
12969;BME280;6549;53.128;8.182;2022-09-03T01:46:42;101305.19;;;14.20;76.97
12969;BME280;6549;53.128;8.182;2022-09-03T01:50:09;101302.81;;;14.08;78.18
12969;BME280;6549;53.128;8.182;2022-09-03T01:57:19;101305.59;;;14.08;78.80
12969;BME280;6549;53.128;8.182;2022-09-03T02:00:25;101302.84;;;13.97;79.86
12969;BME280;6549;53.128;8.182;2022-09-03T02:03:34;101313.88;;;13.90;79.42
12969;BME280;6549;53.128;8.182;2022-09-03T02:06:37;101307.59;;;13.93;79.64
12969;BME280;6549;53.128;8.182;2022-09-03T02:09:38;101307.97;;;13.88;79.94
12969;BME280;6549;53.128;8.182;2022-09-03T02:12:40;101313.88;;;13.83;80.35
12969;BME280;6549;53.128;8.182;2022-09-03T02:15:44;101313.09;;;13.72;81.36
12969;BME280;6549;53.128;8.182;2022-09-03T02:18:49;101305.56;;;13.72;81.72
12969;BME280;6549;53.128;8.182;2022-09-03T02:21:52;101313.88;;;13.65;82.61
12969;BME280;6549;53.128;8.182;2022-09-03T02:24:54;101309.09;;;13.55;83.28
12969;BME280;6549;53.128;8.182;2022-09-03T02:27:54;101303.19;;;13.46;84.42
12969;BME280;6549;53.128;8.182;2022-09-03T02:30:55;101306.72;;;13.50;84.31
12969;BME280;6549;53.128;8.182;2022-09-03T02:33:56;101298.81;;;13.38;85.56
12969;BME280;6549;53.128;8.182;2022-09-03T02:36:57;101300.78;;;13.30;86.39
12969;BME280;6549;53.128;8.182;2022-09-03T02:39:57;101295.66;;;13.32;86.50
12969;BME280;6549;53.128;8.182;2022-09-03T02:42:58;101300.41;;;13.42;85.63
12969;BME280;6549;53.128;8.182;2022-09-03T02:46:01;101297.28;;;13.47;85.27
12969;BME280;6549;53.128;8.182;2022-09-03T02:49:02;101314.22;;;13.32;86.76
12969;BME280;6549;53.128;8.182;2022-09-03T02:52:06;101304.72;;;13.26;87.54
12969;BME280;6549;53.128;8.182;2022-09-03T02:55:08;101305.88;;;13.18;87.26
12969;BME280;6549;53.128;8.182;2022-09-03T02:58:08;101305.44;;;13.09;89.04
12969;BME280;6549;53.128;8.182;2022-09-03T03:01:09;101304.22;;;13.02;90.67
12969;BME280;6549;53.128;8.182;2022-09-03T03:04:10;101301.44;;;12.99;90.67
12969;BME280;6549;53.128;8.182;2022-09-03T03:07:10;101304.25;;;13.10;90.11
12969;BME280;6549;53.128;8.182;2022-09-03T03:10:10;101298.41;;;13.22;89.13
12969;BME280;6549;53.128;8.182;2022-09-03T03:13:12;101303.50;;;13.13;90.21
12969;BME280;6549;53.128;8.182;2022-09-03T03:16:15;101303.50;;;13.16;89.69
12969;BME280;6549;53.128;8.182;2022-09-03T03:19:16;101308.56;;;13.00;91.09
12969;BME280;6549;53.128;8.182;2022-09-03T03:22:16;101310.50;;;12.96;91.29
12969;BME280;6549;53.128;8.182;2022-09-03T03:25:17;101317.56;;;12.90;92.37
12969;BME280;6549;53.128;8.182;2022-09-03T03:28:17;101320.69;;;12.85;92.76
12969;BME280;6549;53.128;8.182;2022-09-03T03:31:20;101310.47;;;12.92;92.54
12969;BME280;6549;53.128;8.182;2022-09-03T03:34:21;101302.66;;;13.05;91.89
12969;BME280;6549;53.128;8.182;2022-09-03T03:37:21;101306.16;;;12.98;92.38
12969;BME280;6549;53.128;8.182;2022-09-03T03:40:22;101313.66;;;12.98;91.93
12969;BME280;6549;53.128;8.182;2022-09-03T03:43:22;101310.53;;;13.06;92.29
12969;BME280;6549;53.128;8.182;2022-09-03T03:46:23;101310.44;;;12.78;94.51
12969;BME280;6549;53.128;8.182;2022-09-03T03:49:23;101313.91;;;12.65;96.15
12969;BME280;6549;53.128;8.182;2022-09-03T03:52:25;101315.88;;;12.64;96.29
12969;BME280;6549;53.128;8.182;2022-09-03T03:55:25;101309.91;;;12.58;96.73
12969;BME280;6549;53.128;8.182;2022-09-03T03:58:28;101307.97;;;12.63;96.80
12969;BME280;6549;53.128;8.182;2022-09-03T04:01:29;101313.03;;;12.53;97.97
12969;BME280;6549;53.128;8.182;2022-09-03T04:04:29;101310.97;;;12.40;100.00
12969;BME280;6549;53.128;8.182;2022-09-03T04:07:29;101302.31;;;12.38;100.00
12969;BME280;6549;53.128;8.182;2022-09-03T04:10:30;101308.22;;;12.36;100.00
12969;BME280;6549;53.128;8.182;2022-09-03T04:13:31;101306.28;;;12.44;100.00
12969;BME280;6549;53.128;8.182;2022-09-03T04:16:31;101309.00;;;12.37;100.00
12969;BME280;6549;53.128;8.182;2022-09-03T04:19:32;101313.03;;;12.50;100.00
12969;BME280;6549;53.128;8.182;2022-09-03T04:22:32;101308.31;;;12.50;100.00
12969;BME280;6549;53.128;8.182;2022-09-03T04:25:35;101313.72;;;12.36;100.00
12969;BME280;6549;53.128;8.182;2022-09-03T04:28:36;101316.81;;;12.28;100.00
12969;BME280;6549;53.128;8.182;2022-09-03T04:31:37;101313.25;;;12.24;100.00
12969;BME280;6549;53.128;8.182;2022-09-03T04:34:37;101313.25;;;12.24;100.00
12969;BME280;6549;53.128;8.182;2022-09-03T04:37:38;101300.69;;;12.30;100.00
12969;BME280;6549;53.128;8.182;2022-09-03T04:40:38;101301.44;;;12.23;100.00
12969;BME280;6549;53.128;8.182;2022-09-03T04:43:39;101300.69;;;12.30;100.00
12969;BME280;6549;53.128;8.182;2022-09-03T04:46:42;101305.44;;;12.33;100.00
12969;BME280;6549;53.128;8.182;2022-09-03T04:49:43;101295.19;;;12.30;100.00
12969;BME280;6549;53.128;8.182;2022-09-03T04:52:43;101296.75;;;12.31;100.00
12969;BME280;6549;53.128;8.182;2022-09-03T04:55:44;101291.31;;;12.38;100.00
12969;BME280;6549;53.128;8.182;2022-09-03T04:58:45;101298.00;;;12.40;100.00
12969;BME280;6549;53.128;8.182;2022-09-03T05:01:46;101294.38;;;12.26;100.00
12969;BME280;6549;53.128;8.182;2022-09-03T05:04:46;101296.81;;;12.38;100.00
12969;BME280;6549;53.128;8.182;2022-09-03T05:07:46;101299.13;;;12.32;100.00
12969;BME280;6549;53.128;8.182;2022-09-03T05:10:47;101297.53;;;12.28;100.00
12969;BME280;6549;53.128;8.182;2022-09-03T05:13:53;101306.97;;;12.27;100.00
12969;BME280;6549;53.128;8.182;2022-09-03T05:16:53;101302.25;;;12.31;100.00
12969;BME280;6549;53.128;8.182;2022-09-03T05:19:54;101304.97;;;12.20;100.00
12969;BME280;6549;53.128;8.182;2022-09-03T05:22:55;101307.38;;;12.29;100.00
12969;BME280;6549;53.128;8.182;2022-09-03T05:25:58;101306.97;;;12.27;100.00
12969;BME280;6549;53.128;8.182;2022-09-03T05:29:00;101304.66;;;12.36;100.00
12969;BME280;6549;53.128;8.182;2022-09-03T05:32:01;101304.06;;;12.67;100.00
12969;BME280;6549;53.128;8.182;2022-09-03T05:35:03;101299.91;;;13.09;100.00
12969;BME280;6549;53.128;8.182;2022-09-03T05:38:03;101300.81;;;13.55;96.42
12969;BME280;6549;53.128;8.182;2022-09-03T05:41:07;101305.19;;;14.06;91.69
12969;BME280;6549;53.128;8.182;2022-09-03T05:44:08;101293.31;;;14.51;89.04
12969;BME280;6549;53.128;8.182;2022-09-03T05:47:08;101296.41;;;14.74;86.05
12969;BME280;6549;53.128;8.182;2022-09-03T05:50:08;101296.25;;;15.13;81.62
12969;BME280;6549;53.128;8.182;2022-09-03T05:53:09;101295.75;;;15.29;79.72
12969;BME280;6549;53.128;8.182;2022-09-03T05:56:18;101297.03;;;15.17;80.13
12969;BME280;6549;53.128;8.182;2022-09-03T05:59:19;101294.50;;;15.37;78.71
12969;BME280;6549;53.128;8.182;2022-09-03T06:02:19;101303.97;;;15.50;76.72
12969;BME280;6549;53.128;8.182;2022-09-03T06:05:19;101296.63;;;15.81;75.11
12969;BME280;6549;53.128;8.182;2022-09-03T06:08:21;101294.22;;;15.83;73.97
12969;BME280;6549;53.128;8.182;2022-09-03T06:11:21;101297.38;;;15.89;72.78
12969;BME280;6549;53.128;8.182;2022-09-03T06:14:25;101307.34;;;16.20;72.19
12969;BME280;6549;53.128;8.182;2022-09-03T06:17:26;101304.66;;;16.54;71.39
12969;BME280;6549;53.128;8.182;2022-09-03T06:20:26;101305.66;;;16.33;69.94
12969;BME280;6549;53.128;8.182;2022-09-03T06:23:28;101304.97;;;15.78;72.06
12969;BME280;6549;53.128;8.182;2022-09-03T06:26:29;101299.69;;;15.35;75.92
12969;BME280;6549;53.128;8.182;2022-09-03T06:29:31;101298.22;;;15.13;77.87
12969;BME280;6549;53.128;8.182;2022-09-03T06:32:31;101308.06;;;15.21;78.81
12969;BME280;6549;53.128;8.182;2022-09-03T06:35:31;101298.81;;;15.45;76.84
12969;BME280;6549;53.128;8.182;2022-09-03T06:38:34;101291.16;;;15.67;75.50
12969;BME280;6549;53.128;8.182;2022-09-03T06:41:37;101294.50;;;15.37;78.79
12969;BME280;6549;53.128;8.182;2022-09-03T06:44:37;101292.03;;;15.60;78.23
12969;BME280;6549;53.128;8.182;2022-09-03T06:47:37;101287.16;;;16.23;73.32
12969;BME280;6549;53.128;8.182;2022-09-03T06:50:38;101293.81;;;17.00;70.76
12969;BME280;6549;53.128;8.182;2022-09-03T06:53:41;101291.09;;;17.54;64.66
12969;BME280;6549;53.128;8.182;2022-09-03T06:56:41;101298.09;;;17.66;64.09
12969;BME280;6549;53.128;8.182;2022-09-03T06:59:42;101295.25;;;18.16;62.17
12969;BME280;6549;53.128;8.182;2022-09-03T07:02:42;101297.00;;;18.53;59.72
12969;BME280;6549;53.128;8.182;2022-09-03T07:05:44;101299.44;;;18.90;57.91
12969;BME280;6549;53.128;8.182;2022-09-03T07:08:45;101299.59;;;18.83;55.56
12969;BME280;6549;53.128;8.182;2022-09-03T07:11:45;101304.44;;;18.79;55.33
12969;BME280;6549;53.128;8.182;2022-09-03T07:14:46;101298.59;;;18.93;53.72
12969;BME280;6549;53.128;8.182;2022-09-03T07:17:46;101308.84;;;18.76;53.78
12969;BME280;6549;53.128;8.182;2022-09-03T07:20:48;101300.88;;;18.98;52.79
12969;BME280;6549;53.128;8.182;2022-09-03T07:23:50;101299.72;;;19.15;52.92
12969;BME280;6549;53.128;8.182;2022-09-03T07:26:51;101302.53;;;19.32;51.41
12969;BME280;6549;53.128;8.182;2022-09-03T07:29:51;101303.16;;;19.39;51.14
12969;BME280;6549;53.128;8.182;2022-09-03T07:32:52;101298.44;;;19.36;52.44
12969;BME280;6549;53.128;8.182;2022-09-03T07:35:53;101297.34;;;19.14;52.88
12969;BME280;6549;53.128;8.182;2022-09-03T07:38:55;101297.13;;;19.05;52.75
12969;BME280;6549;53.128;8.182;2022-09-03T07:41:56;101285.53;;;19.26;51.08
12969;BME280;6549;53.128;8.182;2022-09-03T07:44:59;101290.69;;;19.27;51.36
12969;BME280;6549;53.128;8.182;2022-09-03T07:48:00;101294.50;;;19.69;52.07
12969;BME280;6549;53.128;8.182;2022-09-03T07:51:00;101297.66;;;19.71;49.72
12969;BME280;6549;53.128;8.182;2022-09-03T07:54:03;101292.41;;;19.57;49.48
12969;BME280;6549;53.128;8.182;2022-09-03T07:57:05;101289.28;;;19.71;50.57
12969;BME280;6549;53.128;8.182;2022-09-03T08:00:06;101292.13;;;20.00;49.33
12969;BME280;6549;53.128;8.182;2022-09-03T08:03:08;101296.16;;;20.15;48.61
12969;BME280;6549;53.128;8.182;2022-09-03T08:06:09;101303.81;;;20.11;48.84
12969;BME280;6549;53.128;8.182;2022-09-03T08:09:11;101314.81;;;20.63;47.50
12969;BME280;6549;53.128;8.182;2022-09-03T08:12:12;101320.03;;;20.49;46.37
12969;BME280;6549;53.128;8.182;2022-09-03T08:15:13;101308.53;;;20.31;47.23
12969;BME280;6549;53.128;8.182;2022-09-03T08:18:13;101311.28;;;20.76;46.19
12969;BME280;6549;53.128;8.182;2022-09-03T08:21:16;101311.69;;;20.61;46.74
12969;BME280;6549;53.128;8.182;2022-09-03T08:24:17;101312.22;;;20.56;47.47
12969;BME280;6549;53.128;8.182;2022-09-03T08:27:20;101307.25;;;21.05;46.14
12969;BME280;6549;53.128;8.182;2022-09-03T08:30:24;101303.84;;;21.27;44.24
12969;BME280;6549;53.128;8.182;2022-09-03T08:33:26;101300.38;;;21.99;45.36
12969;BME280;6549;53.128;8.182;2022-09-03T08:36:39;101305.97;;;21.99;42.45
12969;BME280;6549;53.128;8.182;2022-09-03T08:39:40;101305.63;;;21.71;44.18
12969;BME280;6549;53.128;8.182;2022-09-03T08:42:57;101313.78;;;21.15;43.64
12969;BME280;6549;53.128;8.182;2022-09-03T08:46:05;101301.16;;;21.36;43.26
12969;BME280;6549;53.128;8.182;2022-09-03T08:49:10;101308.25;;;21.12;44.07
12969;BME280;6549;53.128;8.182;2022-09-03T08:52:28;101308.63;;;21.14;44.04
12969;BME280;6549;53.128;8.182;2022-09-03T08:55:35;101307.84;;;21.51;43.43
12969;BME280;6549;53.128;8.182;2022-09-03T08:58:41;101305.06;;;21.89;42.92
12969;BME280;6549;53.128;8.182;2022-09-03T09:01:54;101292.94;;;22.05;42.01
12969;BME280;6549;53.128;8.182;2022-09-03T09:08:58;101302.75;;;22.34;41.44
12969;BME280;6549;53.128;8.182;2022-09-03T09:15:39;101296.41;;;22.77;41.12
12969;BME280;6549;53.128;8.182;2022-09-03T09:21:56;101297.09;;;22.47;39.97
12969;BME280;6549;53.128;8.182;2022-09-03T09:25:01;101296.34;;;22.34;39.68
12969;BME280;6549;53.128;8.182;2022-09-03T09:28:16;101300.72;;;22.69;39.96
12969;BME280;6549;53.128;8.182;2022-09-03T09:31:16;101298.25;;;22.59;40.58
12969;BME280;6549;53.128;8.182;2022-09-03T09:34:18;101300.97;;;23.37;38.86
12969;BME280;6549;53.128;8.182;2022-09-03T09:37:18;101303.44;;;23.65;36.57
12969;BME280;6549;53.128;8.182;2022-09-03T09:43:27;101301.25;;;23.08;37.95
12969;BME280;6549;53.128;8.182;2022-09-03T09:46:35;101288.88;;;23.49;37.45
12969;BME280;6549;53.128;8.182;2022-09-03T09:49:37;101283.19;;;23.70;36.14
12969;BME280;6549;53.128;8.182;2022-09-03T09:52:59;101308.53;;;23.98;36.85
12969;BME280;6549;53.128;8.182;2022-09-03T09:56:04;101285.13;;;24.01;35.84
12969;BME280;6549;53.128;8.182;2022-09-03T09:59:06;101301.38;;;24.15;35.66
12969;BME280;6549;53.128;8.182;2022-09-03T10:02:14;101276.94;;;23.66;35.88
12969;BME280;6549;53.128;8.182;2022-09-03T10:05:22;101287.09;;;23.42;35.86
12969;BME280;6549;53.128;8.182;2022-09-03T10:08:23;101291.78;;;23.76;35.29
12969;BME280;6549;53.128;8.182;2022-09-03T10:11:24;101290.09;;;23.17;36.02
12969;BME280;6549;53.128;8.182;2022-09-03T10:14:28;101277.06;;;23.54;34.93
12969;BME280;6549;53.128;8.182;2022-09-03T10:17:44;101281.06;;;24.02;34.55
12969;BME280;6549;53.128;8.182;2022-09-03T10:21:07;101277.13;;;23.41;34.76
12969;BME280;6549;53.128;8.182;2022-09-03T10:24:37;101279.00;;;23.75;34.81
12969;BME280;6549;53.128;8.182;2022-09-03T10:27:40;101272.16;;;23.85;33.71
12969;BME280;6549;53.128;8.182;2022-09-03T10:31:01;101274.47;;;23.87;33.44
12969;BME280;6549;53.128;8.182;2022-09-03T10:34:11;101288.44;;;23.59;33.94
12969;BME280;6549;53.128;8.182;2022-09-03T10:37:31;101268.75;;;23.50;34.25
12969;BME280;6549;53.128;8.182;2022-09-03T10:40:37;101259.25;;;23.48;34.18
12969;BME280;6549;53.128;8.182;2022-09-03T10:47:26;101251.41;;;23.43;33.60
12969;BME280;6549;53.128;8.182;2022-09-03T10:50:45;101256.06;;;23.86;33.55
12969;BME280;6549;53.128;8.182;2022-09-03T10:57:23;101251.88;;;23.72;32.85
12969;BME280;6549;53.128;8.182;2022-09-03T11:00:27;101237.09;;;24.44;32.41
12969;BME280;6549;53.128;8.182;2022-09-03T11:03:44;101240.25;;;24.37;31.46
12969;BME280;6549;53.128;8.182;2022-09-03T11:07:07;101255.78;;;24.75;31.79
12969;BME280;6549;53.128;8.182;2022-09-03T11:10:22;101256.72;;;24.81;31.76
12969;BME280;6549;53.128;8.182;2022-09-03T11:13:30;101250.16;;;24.84;31.81
12969;BME280;6549;53.128;8.182;2022-09-03T11:16:57;101249.94;;;25.15;30.60
12969;BME280;6549;53.128;8.182;2022-09-03T11:20:24;101239.47;;;25.57;31.52
12969;BME280;6549;53.128;8.182;2022-09-03T11:23:23;101245.88;;;25.58;30.88
12969;BME280;6549;53.128;8.182;2022-09-03T11:26:26;101247.34;;;24.93;30.79
12969;BME280;6549;53.128;8.182;2022-09-03T11:29:43;101229.47;;;25.47;30.73
12969;BME280;6549;53.128;8.182;2022-09-03T11:32:57;101249.84;;;25.75;30.23
12969;BME280;6549;53.128;8.182;2022-09-03T11:36:00;101228.50;;;25.59;30.19
12969;BME280;6549;53.128;8.182;2022-09-03T11:39:13;101235.56;;;25.55;30.58
12969;BME280;6549;53.128;8.182;2022-09-03T11:42:38;101231.66;;;26.00;30.14
12969;BME280;6549;53.128;8.182;2022-09-03T11:45:40;101240.16;;;26.14;30.14
12969;BME280;6549;53.128;8.182;2022-09-03T11:48:43;101227.78;;;25.97;29.72
12969;BME280;6549;53.128;8.182;2022-09-03T11:51:58;101224.63;;;25.57;30.61
12969;BME280;6549;53.128;8.182;2022-09-03T11:54:59;101223.81;;;25.23;31.15
12969;BME280;6549;53.128;8.182;2022-09-03T11:58:11;101223.44;;;25.39;31.43
12969;BME280;6549;53.128;8.182;2022-09-03T12:01:16;101210.97;;;25.31;31.46
12969;BME280;6549;53.128;8.182;2022-09-03T12:07:58;101221.44;;;24.89;32.42
12969;BME280;6549;53.128;8.182;2022-09-03T12:14:46;101212.16;;;25.07;32.72
12969;BME280;6549;53.128;8.182;2022-09-03T12:17:57;101206.97;;;25.14;32.39
12969;BME280;6549;53.128;8.182;2022-09-03T12:21:16;101213.97;;;25.19;32.16
12969;BME280;6549;53.128;8.182;2022-09-03T12:24:18;101220.63;;;24.97;31.78
12969;BME280;6549;53.128;8.182;2022-09-03T12:27:24;101212.22;;;24.88;32.36
12969;BME280;6549;53.128;8.182;2022-09-03T12:30:25;101217.31;;;25.08;31.84
12969;BME280;6549;53.128;8.182;2022-09-03T12:33:26;101205.50;;;25.28;32.67
12969;BME280;6549;53.128;8.182;2022-09-03T12:36:39;101206.28;;;25.28;31.44
12969;BME280;6549;53.128;8.182;2022-09-03T12:39:49;101222.16;;;25.73;31.61
12969;BME280;6549;53.128;8.182;2022-09-03T12:42:50;101208.88;;;25.41;31.53
12969;BME280;6549;53.128;8.182;2022-09-03T12:45:53;101199.75;;;24.71;32.02
12969;BME280;6549;53.128;8.182;2022-09-03T12:48:57;101199.84;;;25.04;32.35
12969;BME280;6549;53.128;8.182;2022-09-03T12:55:56;101197.41;;;25.77;31.30
12969;BME280;6549;53.128;8.182;2022-09-03T12:59:05;101203.97;;;25.98;30.66
12969;BME280;6549;53.128;8.182;2022-09-03T13:02:18;101185.16;;;25.66;31.56
12969;BME280;6549;53.128;8.182;2022-09-03T13:05:31;101184.19;;;26.07;31.11
12969;BME280;6549;53.128;8.182;2022-09-03T13:08:47;101184.19;;;25.69;31.21
12969;BME280;6549;53.128;8.182;2022-09-03T13:11:48;101185.25;;;25.95;31.21
12969;BME280;6549;53.128;8.182;2022-09-03T13:14:51;101183.06;;;25.75;31.46
12969;BME280;6549;53.128;8.182;2022-09-03T13:21:28;101174.50;;;25.70;31.27
12969;BME280;6549;53.128;8.182;2022-09-03T13:31:55;101162.06;;;25.53;31.25
12969;BME280;6549;53.128;8.182;2022-09-03T13:35:01;101164.16;;;25.43;31.38
12969;BME280;6549;53.128;8.182;2022-09-03T13:38:17;101165.97;;;25.31;31.47
12969;BME280;6549;53.128;8.182;2022-09-03T13:41:35;101152.13;;;25.42;31.46
12969;BME280;6549;53.128;8.182;2022-09-03T13:44:43;101149.63;;;25.44;31.51
12969;BME280;6549;53.128;8.182;2022-09-03T13:47:56;101155.19;;;25.54;30.83
12969;BME280;6549;53.128;8.182;2022-09-03T13:51:21;101152.44;;;25.44;31.62
12969;BME280;6549;53.128;8.182;2022-09-03T13:54:30;101152.84;;;25.28;30.88
12969;BME280;6549;53.128;8.182;2022-09-03T13:58:30;101157.66;;;24.53;32.36
12969;BME280;6549;53.128;8.182;2022-09-03T14:01:42;101157.25;;;24.18;32.98
12969;BME280;6549;53.128;8.182;2022-09-03T14:11:02;101146.47;;;25.19;31.88
12969;BME280;6549;53.128;8.182;2022-09-03T14:17:45;101145.03;;;25.23;30.84
12969;BME280;6549;53.128;8.182;2022-09-03T14:20:57;101144.06;;;25.35;31.25
12969;BME280;6549;53.128;8.182;2022-09-03T14:24:14;101137.53;;;24.96;32.03
12969;BME280;6549;53.128;8.182;2022-09-03T14:27:29;101153.53;;;24.72;31.81
12969;BME280;6549;53.128;8.182;2022-09-03T14:33:46;101148.34;;;24.80;31.81
12969;BME280;6549;53.128;8.182;2022-09-03T14:37:02;101138.91;;;24.59;31.89
12969;BME280;6549;53.128;8.182;2022-09-03T14:40:18;101136.06;;;24.68;32.30
12969;BME280;6549;53.128;8.182;2022-09-03T14:43:46;101133.50;;;24.88;30.67
12969;BME280;6549;53.128;8.182;2022-09-03T15:00:27;101128.31;;;25.29;31.04
12969;BME280;6549;53.128;8.182;2022-09-03T15:07:07;101141.78;;;25.48;30.75
12969;BME280;6549;53.128;8.182;2022-09-03T15:10:28;101130.28;;;25.37;30.36
12969;BME280;6549;53.128;8.182;2022-09-03T15:13:45;101126.22;;;25.38;30.78
12969;BME280;6549;53.128;8.182;2022-09-03T15:20:20;101120.97;;;24.98;30.69
12969;BME280;6549;53.128;8.182;2022-09-03T15:26:55;101126.31;;;24.87;31.98
12969;BME280;6549;53.128;8.182;2022-09-03T15:33:11;101135.91;;;24.72;31.23
12969;BME280;6549;53.128;8.182;2022-09-03T15:36:23;101134.72;;;24.54;31.67
12969;BME280;6549;53.128;8.182;2022-09-03T15:39:37;101140.16;;;24.58;32.24
12969;BME280;6549;53.128;8.182;2022-09-03T15:42:41;101146.97;;;24.75;31.78
12969;BME280;6549;53.128;8.182;2022-09-03T15:45:51;101142.94;;;24.67;31.23
12969;BME280;6549;53.128;8.182;2022-09-03T15:49:02;101133.13;;;24.63;32.28
12969;BME280;6549;53.128;8.182;2022-09-03T15:55:38;101135.00;;;24.56;31.83
12969;BME280;6549;53.128;8.182;2022-09-03T15:58:49;101143.31;;;24.51;32.45
12969;BME280;6549;53.128;8.182;2022-09-03T16:02:04;101154.06;;;24.52;31.69
12969;BME280;6549;53.128;8.182;2022-09-03T16:05:14;101150.63;;;24.48;32.17
12969;BME280;6549;53.128;8.182;2022-09-03T16:12:24;101145.84;;;24.22;32.61
12969;BME280;6549;53.128;8.182;2022-09-03T16:19:04;101151.94;;;24.29;32.40
12969;BME280;6549;53.128;8.182;2022-09-03T16:21:49;101156.97;;;24.16;32.15
12969;BME280;6549;53.128;8.182;2022-09-03T16:25:02;101160.34;;;24.02;32.17
12969;BME280;6549;53.128;8.182;2022-09-03T16:28:11;101156.16;;;23.88;32.56
12969;BME280;6549;53.128;8.182;2022-09-03T16:31:34;101156.59;;;23.96;32.31
12969;BME280;6549;53.128;8.182;2022-09-03T16:35:14;101159.25;;;23.54;32.87
12969;BME280;6549;53.128;8.182;2022-09-03T16:42:03;101152.84;;;23.44;33.74
12969;BME280;6549;53.128;8.182;2022-09-03T16:58:57;101167.56;;;23.26;34.00
12969;BME280;6549;53.128;8.182;2022-09-03T17:15:46;101169.56;;;23.17;33.73
12969;BME280;6549;53.128;8.182;2022-09-03T17:22:20;101169.72;;;23.22;33.64
12969;BME280;6549;53.128;8.182;2022-09-03T17:25:39;101164.66;;;22.99;34.48
12969;BME280;6549;53.128;8.182;2022-09-03T17:28:55;101168.25;;;23.00;34.19
12969;BME280;6549;53.128;8.182;2022-09-03T17:32:17;101164.75;;;22.87;34.73
12969;BME280;6549;53.128;8.182;2022-09-03T17:35:39;101173.44;;;22.79;34.63
12969;BME280;6549;53.128;8.182;2022-09-03T17:39:15;101177.94;;;22.55;35.67
12969;BME280;6549;53.128;8.182;2022-09-03T17:42:30;101180.19;;;22.38;35.82
12969;BME280;6549;53.128;8.182;2022-09-03T17:49:33;101190.34;;;22.23;36.26
12969;BME280;6549;53.128;8.182;2022-09-03T17:52:48;101193.72;;;22.18;36.71
12969;BME280;6549;53.128;8.182;2022-09-03T17:55:57;101196.63;;;21.93;37.48
12969;BME280;6549;53.128;8.182;2022-09-03T17:59:07;101197.16;;;21.88;37.58
12969;BME280;6549;53.128;8.182;2022-09-03T18:02:23;101191.81;;;21.81;38.02
12969;BME280;6549;53.128;8.182;2022-09-03T18:05:39;101209.72;;;21.83;38.04
12969;BME280;6549;53.128;8.182;2022-09-03T18:08:56;101214.13;;;21.72;38.29
12969;BME280;6549;53.128;8.182;2022-09-03T18:15:24;101216.28;;;21.55;38.77
12969;BME280;6549;53.128;8.182;2022-09-03T18:18:29;101220.59;;;21.69;38.87
12969;BME280;6549;53.128;8.182;2022-09-03T18:21:35;101227.13;;;21.40;39.74
12969;BME280;6549;53.128;8.182;2022-09-03T18:24:57;101231.03;;;21.30;39.75
12969;BME280;6549;53.128;8.182;2022-09-03T18:28:20;101228.91;;;21.22;39.94
12969;BME280;6549;53.128;8.182;2022-09-03T18:31:44;101243.19;;;20.98;40.45
12969;BME280;6549;53.128;8.182;2022-09-03T18:35:03;101244.06;;;20.95;40.28
12969;BME280;6549;53.128;8.182;2022-09-03T18:38:25;101245.16;;;20.85;40.65
12969;BME280;6549;53.128;8.182;2022-09-03T18:46:08;101256.69;;;20.87;40.65
12969;BME280;6549;53.128;8.182;2022-09-03T18:53:02;101272.63;;;20.74;40.75
12969;BME280;6549;53.128;8.182;2022-09-03T18:56:42;101267.44;;;20.60;41.42
12969;BME280;6549;53.128;8.182;2022-09-03T19:00:08;101280.00;;;20.39;42.15
12969;BME280;6549;53.128;8.182;2022-09-03T19:03:40;101279.50;;;20.57;41.13
12969;BME280;6549;53.128;8.182;2022-09-03T19:07:21;101283.00;;;20.61;41.20
12969;BME280;6549;53.128;8.182;2022-09-03T19:10:57;101280.38;;;20.54;41.14
12969;BME280;6549;53.128;8.182;2022-09-03T19:14:33;101280.44;;;20.38;41.64
12969;BME280;6549;53.128;8.182;2022-09-03T19:18:01;101284.66;;;20.30;41.79
12969;BME280;6549;53.128;8.182;2022-09-03T19:21:29;101287.59;;;20.06;42.75
12969;BME280;6549;53.128;8.182;2022-09-03T19:24:52;101293.09;;;20.10;42.39
12969;BME280;6549;53.128;8.182;2022-09-03T19:28:18;101299.75;;;20.00;42.13
12969;BME280;6549;53.128;8.182;2022-09-03T19:31:52;101302.06;;;20.01;42.20
12969;BME280;6549;53.128;8.182;2022-09-03T19:35:22;101298.94;;;19.83;42.84